createdAt,value
2017-12-21T00:02:19.324Z,23.10
2017-12-21T00:04:46.853Z,16.62
2017-12-21T00:07:14.409Z,15.30
2017-12-21T00:09:41.943Z,19.40
2017-12-21T00:12:10.298Z,22.95
2017-12-21T00:14:37.832Z,21.23
2017-12-21T00:17:06.152Z,23.98
2017-12-21T00:19:33.688Z,20.55
2017-12-21T00:22:01.239Z,25.42
2017-12-21T00:24:28.802Z,27.42
2017-12-21T00:26:56.357Z,25.83
2017-12-21T00:29:23.921Z,27.08
2017-12-21T00:31:51.476Z,25.27
2017-12-21T00:34:19.126Z,21.27
2017-12-21T00:36:47.469Z,23.87
2017-12-21T00:39:15.034Z,22.83
2017-12-21T00:41:42.589Z,24.05
2017-12-21T00:44:10.133Z,19.50
2017-12-21T00:46:38.598Z,23.48
2017-12-21T00:49:06.153Z,22.83
2017-12-21T00:51:33.684Z,18.25
2017-12-21T00:54:02.012Z,18.73
2017-12-21T00:56:29.540Z,21.23
2017-12-21T00:58:57.080Z,17.52
2017-12-21T01:01:25.442Z,16.35
2017-12-21T01:03:52.987Z,20.55
2017-12-21T01:06:21.442Z,16.83
2017-12-21T01:08:49.429Z,24.25
2017-12-21T01:11:17.765Z,19.62
2017-12-21T01:13:45.306Z,24.80
2017-12-21T01:16:12.869Z,20.92
2017-12-21T01:18:40.423Z,20.70
2017-12-21T01:21:07.989Z,23.42
2017-12-21T01:23:35.529Z,25.35
2017-12-21T01:26:03.121Z,29.50
2017-12-21T01:28:30.685Z,31.52
2017-12-21T01:30:58.262Z,29.92
2017-12-21T01:33:25.812Z,32.05
2017-12-21T01:35:53.390Z,30.80
2017-12-21T01:38:20.983Z,31.75
2017-12-21T01:40:49.414Z,36.42
2017-12-21T01:43:16.963Z,38.95
2017-12-21T01:45:44.527Z,33.17
2017-12-21T01:48:12.065Z,38.55
2017-12-21T01:50:39.655Z,35.47
2017-12-21T01:53:07.219Z,31.75
2017-12-21T01:55:34.755Z,36.17
2017-12-21T01:58:02.300Z,36.47
2017-12-21T02:00:29.836Z,35.35
2017-12-21T02:02:58.149Z,34.05
2017-12-21T02:05:25.677Z,35.55
2017-12-21T02:07:54.000Z,38.30
2017-12-21T02:10:21.536Z,44.25
2017-12-21T02:12:49.084Z,39.80
2017-12-21T02:15:16.621Z,40.90
2017-12-21T02:17:44.931Z,42.13
2017-12-21T02:20:12.468Z,39.72
2017-12-21T02:22:40.765Z,35.63
2017-12-21T02:25:08.311Z,38.05
2017-12-21T02:27:36.618Z,36.90
2017-12-21T02:30:04.161Z,35.00
2017-12-21T02:32:31.690Z,38.70
2017-12-21T02:35:00.016Z,37.78
2017-12-21T02:37:27.578Z,28.85
2017-12-21T02:39:55.131Z,39.47
2017-12-21T02:42:22.669Z,42.15
2017-12-21T02:44:50.973Z,38.35
2017-12-21T02:47:18.532Z,38.53
2017-12-21T02:49:46.088Z,29.70
2017-12-21T02:52:13.626Z,37.95
2017-12-21T02:54:41.950Z,35.92
2017-12-21T02:57:09.488Z,30.10
2017-12-21T02:59:37.077Z,27.95
2017-12-21T03:02:04.651Z,29.58
2017-12-21T03:04:32.184Z,35.80
2017-12-21T03:06:59.745Z,33.80
2017-12-21T03:09:27.276Z,31.02
2017-12-21T03:11:54.843Z,30.50
2017-12-21T03:14:22.379Z,40.47
2017-12-21T03:16:50.685Z,31.80
2017-12-21T03:19:18.222Z,38.33
2017-12-21T03:21:45.789Z,33.67
2017-12-21T03:24:13.325Z,36.70
2017-12-21T03:26:41.640Z,34.78
2017-12-21T03:29:09.190Z,35.38
2017-12-21T03:31:36.757Z,31.12
2017-12-21T03:34:04.285Z,36.00
2017-12-21T03:36:32.601Z,34.15
2017-12-21T03:39:00.141Z,34.42
2017-12-21T03:41:27.685Z,40.80
2017-12-21T03:43:55.977Z,33.72
2017-12-21T03:46:23.533Z,34.15
2017-12-21T03:48:51.072Z,33.33
2017-12-21T03:51:19.389Z,29.33
2017-12-21T03:53:46.950Z,28.85
2017-12-21T03:56:14.488Z,21.67
2017-12-21T03:58:42.053Z,27.30
2017-12-21T04:01:09.600Z,31.15
2017-12-21T04:03:37.944Z,28.25
2017-12-21T04:06:06.288Z,30.55
2017-12-21T04:08:33.837Z,24.83
2017-12-21T04:11:01.388Z,30.30
2017-12-21T04:13:28.936Z,27.40
2017-12-21T04:15:57.240Z,25.42
2017-12-21T04:18:24.792Z,28.67
2017-12-21T04:20:52.354Z,28.05
2017-12-21T04:23:19.888Z,34.08
2017-12-21T04:25:48.304Z,27.77
2017-12-21T04:28:15.837Z,27.67
2017-12-21T04:30:43.392Z,25.27
2017-12-21T04:33:10.967Z,26.73
2017-12-21T04:35:38.605Z,34.80
2017-12-21T04:38:06.157Z,30.05
2017-12-21T04:40:34.453Z,37.22
2017-12-21T04:43:02.027Z,31.02
2017-12-21T04:45:29.570Z,31.52
2017-12-21T04:47:57.133Z,30.33
2017-12-21T04:50:24.756Z,29.27
2017-12-21T04:52:52.329Z,26.87
2017-12-21T04:55:20.630Z,28.75
2017-12-21T04:57:48.238Z,22.80
2017-12-21T05:00:15.794Z,24.48
2017-12-21T05:02:43.398Z,27.23
2017-12-21T05:05:10.944Z,26.55
2017-12-21T05:07:39.272Z,29.35
2017-12-21T05:10:06.796Z,26.87
2017-12-21T05:12:34.340Z,29.65
2017-12-21T05:15:02.633Z,30.23
2017-12-21T05:17:30.192Z,33.78
2017-12-21T05:19:57.745Z,25.80
2017-12-21T05:22:26.037Z,24.60
2017-12-21T05:24:53.593Z,31.80
2017-12-21T05:27:21.153Z,26.70
2017-12-21T05:29:49.264Z,30.55
2017-12-21T05:32:16.864Z,29.75
2017-12-21T05:34:45.160Z,36.67
2017-12-21T05:37:12.693Z,32.17
2017-12-21T05:39:40.245Z,42.92
2017-12-21T05:42:07.796Z,35.55
2017-12-21T05:44:35.369Z,41.53
2017-12-21T05:47:02.897Z,45.83
2017-12-21T05:49:30.462Z,35.83
2017-12-21T05:51:57.994Z,45.17
2017-12-21T05:54:25.536Z,37.88
2017-12-21T05:56:53.068Z,37.10
2017-12-21T05:59:20.624Z,47.47
2017-12-21T06:01:48.165Z,46.13
2017-12-21T06:04:16.511Z,46.55
2017-12-21T06:06:44.919Z,45.75
2017-12-21T06:09:12.484Z,40.15
2017-12-21T06:11:40.050Z,39.92
2017-12-21T06:14:07.619Z,35.75
2017-12-21T06:16:35.190Z,33.55
2017-12-21T06:19:02.766Z,33.63
2017-12-21T06:21:30.300Z,32.97
2017-12-21T06:23:57.908Z,36.53
2017-12-21T06:26:25.462Z,33.00
2017-12-21T06:28:53.010Z,34.33
2017-12-21T06:31:20.563Z,28.75
2017-12-21T06:33:48.103Z,31.23
2017-12-21T06:36:15.645Z,30.12
2017-12-21T06:38:43.194Z,30.02
2017-12-21T06:41:11.498Z,27.05
2017-12-21T06:43:39.157Z,33.85
2017-12-21T06:46:07.594Z,40.47
2017-12-21T06:48:35.160Z,32.63
2017-12-21T06:51:03.461Z,37.97
2017-12-21T06:53:31.022Z,36.42
2017-12-21T06:55:58.590Z,39.75
2017-12-21T06:58:26.109Z,31.02
2017-12-21T07:00:55.164Z,30.92
2017-12-21T07:03:22.687Z,33.50
2017-12-21T07:05:51.040Z,36.50
2017-12-21T07:08:18.573Z,31.75
2017-12-21T07:10:46.111Z,36.83
2017-12-21T07:13:13.661Z,31.55
2017-12-21T07:15:41.204Z,23.60
2017-12-21T07:18:08.761Z,25.35
2017-12-21T07:20:36.333Z,25.77
2017-12-21T07:23:04.026Z,28.00
2017-12-21T07:25:31.597Z,25.92
2017-12-21T07:27:59.187Z,25.50
2017-12-21T07:30:27.538Z,29.95
2017-12-21T07:32:55.123Z,31.08
2017-12-21T07:35:23.471Z,33.47
2017-12-21T07:37:51.021Z,29.60
2017-12-21T07:40:18.669Z,29.80
2017-12-21T07:42:46.212Z,30.83
2017-12-21T07:45:13.741Z,25.20
2017-12-21T07:47:41.293Z,28.08
2017-12-21T07:50:08.818Z,30.70
2017-12-21T07:52:36.365Z,28.10
2017-12-21T07:55:03.916Z,23.17
2017-12-21T07:57:31.486Z,31.85
2017-12-21T07:59:59.048Z,29.52
2017-12-21T08:02:26.711Z,32.97
2017-12-21T08:04:54.293Z,24.63
2017-12-21T08:07:21.891Z,27.48
2017-12-21T08:09:50.193Z,23.12
2017-12-21T08:12:17.745Z,28.92
2017-12-21T08:14:45.289Z,26.35
2017-12-21T08:17:13.593Z,29.00
2017-12-21T08:19:41.182Z,28.40
2017-12-21T08:22:08.726Z,23.15
2017-12-21T08:24:36.288Z,27.20
2017-12-21T08:27:04.461Z,26.85
2017-12-21T08:29:32.790Z,22.30
2017-12-21T08:32:00.339Z,25.60
2017-12-21T08:34:27.899Z,29.17
2017-12-21T08:36:55.447Z,22.75
2017-12-21T08:39:22.997Z,22.98
2017-12-21T08:41:50.571Z,21.08
2017-12-21T08:44:18.177Z,23.62
2017-12-21T08:46:45.724Z,18.35
2017-12-21T08:49:13.279Z,20.30
2017-12-21T08:51:40.845Z,19.98
2017-12-21T08:54:09.686Z,19.17
2017-12-21T08:56:37.223Z,19.30
2017-12-21T08:59:04.814Z,23.15
2017-12-21T09:01:32.360Z,22.92
2017-12-21T09:04:00.654Z,19.20
2017-12-21T09:06:28.216Z,18.95
2017-12-21T09:08:55.741Z,21.25
2017-12-21T09:11:23.304Z,16.42
2017-12-21T09:13:51.036Z,18.08
2017-12-21T09:16:18.593Z,16.80
2017-12-21T09:18:46.131Z,16.58
2017-12-21T09:21:14.449Z,22.17
2017-12-21T09:23:41.968Z,18.02
2017-12-21T09:26:10.267Z,14.65
2017-12-21T09:28:37.816Z,20.00
2017-12-21T09:31:06.114Z,17.77
2017-12-21T09:33:33.806Z,15.80
2017-12-21T09:36:01.346Z,18.67
2017-12-21T09:38:28.897Z,16.42
2017-12-21T09:40:56.428Z,16.67
2017-12-21T09:43:24.757Z,19.33
2017-12-21T09:45:52.299Z,13.77
2017-12-21T09:48:19.961Z,18.15
2017-12-21T09:50:47.507Z,18.70
2017-12-21T09:53:15.060Z,14.77
2017-12-21T09:55:42.650Z,14.85
2017-12-21T09:58:10.200Z,12.43
2017-12-21T10:00:37.776Z,19.40
2017-12-21T10:03:05.308Z,15.05
2017-12-21T10:05:32.860Z,16.45
2017-12-21T10:08:01.154Z,15.75
2017-12-21T10:10:28.700Z,10.60
2017-12-21T10:12:56.267Z,11.20
2017-12-21T10:15:23.862Z,12.95
2017-12-21T10:17:51.388Z,11.70
2017-12-21T10:20:18.933Z,11.52
2017-12-21T10:22:47.229Z,9.82
2017-12-21T10:25:14.797Z,9.63
2017-12-21T10:27:42.320Z,8.30
2017-12-21T10:30:10.687Z,9.80
2017-12-21T10:32:38.205Z,8.77
2017-12-21T10:35:05.729Z,8.80
2017-12-21T10:37:33.287Z,10.00
2017-12-21T10:40:00.888Z,8.60
2017-12-21T10:42:28.409Z,7.65
2017-12-21T10:44:55.950Z,8.02
2017-12-21T10:47:24.287Z,7.25
2017-12-21T10:49:51.805Z,8.98
2017-12-21T10:52:19.341Z,6.35
2017-12-21T10:54:47.633Z,8.35
2017-12-21T10:57:15.962Z,7.30
2017-12-21T10:59:43.485Z,7.07
2017-12-21T11:02:11.024Z,8.18
2017-12-21T11:04:39.334Z,6.37
2017-12-21T11:07:06.876Z,8.75
2017-12-21T11:09:34.425Z,8.85
2017-12-21T11:12:02.762Z,8.27
2017-12-21T11:14:30.297Z,8.32
2017-12-21T11:16:57.865Z,5.65
2017-12-21T11:19:25.418Z,6.55
2017-12-21T11:21:52.948Z,7.97
2017-12-21T11:24:21.278Z,7.90
2017-12-21T11:26:48.812Z,8.27
2017-12-21T11:29:16.377Z,6.53
2017-12-21T11:31:43.893Z,6.60
2017-12-21T11:34:11.441Z,5.72
2017-12-21T11:36:38.968Z,6.45
2017-12-21T11:39:06.508Z,6.85
2017-12-21T11:41:34.058Z,6.12
2017-12-21T11:44:01.600Z,5.80
2017-12-21T11:46:29.970Z,5.55
2017-12-21T11:48:58.389Z,8.50
2017-12-21T11:51:25.929Z,8.63
2017-12-21T11:53:53.486Z,7.05
2017-12-21T11:56:22.240Z,7.12
2017-12-21T11:58:49.796Z,10.18
2017-12-21T12:01:17.333Z,8.50
2017-12-21T12:03:44.857Z,9.73
2017-12-21T12:06:12.397Z,6.05
2017-12-21T12:08:40.705Z,8.20
2017-12-21T12:11:08.286Z,6.90
2017-12-21T12:13:35.809Z,7.80
2017-12-21T12:16:04.048Z,12.30
2017-12-21T12:18:31.588Z,6.87
2017-12-21T12:20:59.145Z,7.32
2017-12-21T12:23:26.668Z,7.22
2017-12-21T12:25:54.260Z,6.28
2017-12-21T12:28:21.825Z,8.85
2017-12-21T12:30:49.376Z,8.45
2017-12-21T12:33:16.919Z,7.47
2017-12-21T12:35:44.476Z,7.75
2017-12-21T12:38:12.004Z,6.78
2017-12-21T12:40:40.327Z,7.18
2017-12-21T12:43:07.853Z,4.40
2017-12-21T12:45:36.186Z,6.93
2017-12-21T12:48:03.728Z,7.78
2017-12-21T12:50:31.278Z,35.13
2017-12-21T12:52:58.808Z,5.18
2017-12-21T12:55:29.014Z,5.60
2017-12-21T12:57:57.339Z,7.03
2017-12-21T13:00:24.878Z,6.25
2017-12-21T13:02:52.449Z,7.62
2017-12-21T13:05:19.972Z,6.62
2017-12-21T13:07:48.286Z,5.22
2017-12-21T13:10:16.332Z,6.20
2017-12-21T13:12:44.658Z,6.75
2017-12-21T13:15:12.221Z,6.43
2017-12-21T13:17:39.770Z,5.12
2017-12-21T13:20:07.298Z,3.90
2017-12-21T13:22:34.845Z,7.12
2017-12-21T13:25:03.205Z,3.42
2017-12-21T13:27:30.744Z,5.37
2017-12-21T13:29:58.293Z,4.95
2017-12-21T13:32:25.856Z,3.75
2017-12-21T13:34:53.450Z,5.05
2017-12-21T13:37:20.977Z,6.12
2017-12-21T13:39:48.532Z,8.00
2017-12-21T13:42:16.089Z,7.37
2017-12-21T13:44:43.627Z,8.93
2017-12-21T13:47:11.164Z,6.05
2017-12-21T13:49:39.485Z,6.30
2017-12-21T13:52:07.016Z,7.93
2017-12-21T13:54:34.629Z,9.10
2017-12-21T13:57:02.114Z,7.65
2017-12-21T13:59:29.670Z,6.10
2017-12-21T14:01:57.210Z,11.55
2017-12-21T14:04:25.533Z,10.85
2017-12-21T14:06:53.052Z,7.25
2017-12-21T14:09:21.404Z,8.50
2017-12-21T14:11:48.934Z,9.38
2017-12-21T14:14:16.465Z,5.87
2017-12-21T14:16:44.009Z,6.85
2017-12-21T14:19:12.293Z,8.13
2017-12-21T14:21:39.837Z,8.20
2017-12-21T14:24:08.171Z,8.00
2017-12-21T14:26:35.724Z,6.05
2017-12-21T14:29:03.293Z,8.95
2017-12-21T14:31:30.859Z,7.05
2017-12-21T14:33:58.440Z,4.97
2017-12-21T14:36:25.997Z,7.15
2017-12-21T14:38:53.528Z,4.40
2017-12-21T14:41:21.046Z,4.45
2017-12-21T14:43:48.608Z,4.40
2017-12-21T14:46:16.206Z,4.10
2017-12-21T14:48:43.773Z,4.25
2017-12-21T14:51:11.401Z,5.05
2017-12-21T14:53:38.957Z,3.80
2017-12-21T14:56:06.495Z,5.18
2017-12-21T14:58:34.057Z,4.25
2017-12-21T15:01:01.613Z,4.80
2017-12-21T15:03:29.965Z,2.80
2017-12-21T15:05:57.511Z,4.95
2017-12-21T15:08:25.103Z,2.92
2017-12-21T15:10:53.392Z,3.20
2017-12-21T15:13:21.680Z,2.87
2017-12-21T15:15:49.356Z,3.35
2017-12-21T15:18:16.910Z,4.97
2017-12-21T15:20:44.475Z,2.72
2017-12-21T15:23:12.005Z,2.50
2017-12-21T15:25:40.353Z,2.05
2017-12-21T15:28:07.892Z,2.60
2017-12-21T15:30:35.418Z,2.42
2017-12-21T15:33:02.971Z,2.47
2017-12-21T15:35:30.508Z,5.95
2017-12-21T15:37:58.800Z,2.72
2017-12-21T15:40:27.136Z,4.07
2017-12-21T15:42:54.682Z,3.80
2017-12-21T15:45:22.228Z,2.37
2017-12-21T15:47:49.885Z,3.40
2017-12-21T15:50:17.411Z,3.25
2017-12-21T15:52:45.725Z,3.95
2017-12-21T15:55:13.254Z,2.90
2017-12-21T15:57:41.580Z,2.97
2017-12-21T16:00:09.101Z,4.45
2017-12-21T16:02:36.678Z,12.07
2017-12-21T16:05:04.209Z,4.45
2017-12-21T16:07:32.515Z,4.03
2017-12-21T16:10:00.077Z,3.05
2017-12-21T16:12:27.624Z,3.47
2017-12-21T16:14:55.160Z,3.58
2017-12-21T16:17:22.689Z,4.30
2017-12-21T16:19:51.001Z,4.00
2017-12-21T16:22:18.544Z,2.83
2017-12-21T16:24:46.085Z,3.05
2017-12-21T16:27:14.365Z,3.03
2017-12-21T16:29:42.693Z,2.00
2017-12-21T16:32:10.225Z,2.50
2017-12-21T16:34:37.789Z,2.78
2017-12-21T16:37:05.316Z,4.22
2017-12-21T16:39:33.629Z,5.03
2017-12-21T16:42:01.178Z,3.92
2017-12-21T16:44:28.721Z,2.72
2017-12-21T16:46:57.025Z,4.10
2017-12-21T16:49:24.555Z,5.57
2017-12-21T16:51:52.905Z,5.22
2017-12-21T16:54:20.453Z,3.95
2017-12-21T16:56:48.001Z,8.05
2017-12-21T16:59:15.524Z,5.70
2017-12-21T17:01:43.050Z,2.90
2017-12-21T17:04:10.584Z,5.60
2017-12-21T17:06:38.117Z,8.45
2017-12-21T17:09:05.656Z,10.70
2017-12-21T17:11:33.956Z,7.25
2017-12-21T17:14:01.523Z,13.50
2017-12-21T17:16:29.045Z,7.57
2017-12-21T17:18:56.720Z,4.68
2017-12-21T17:21:25.019Z,11.57
2017-12-21T17:23:52.668Z,7.30
2017-12-21T17:26:20.959Z,5.07
2017-12-21T17:28:48.504Z,8.75
2017-12-21T17:31:16.794Z,6.87
2017-12-21T17:33:44.347Z,10.05
2017-12-21T17:36:11.868Z,8.38
2017-12-21T17:38:39.393Z,6.53
2017-12-21T17:41:06.946Z,4.60
2017-12-21T17:43:34.497Z,3.37
2017-12-21T17:46:02.049Z,4.93
2017-12-21T17:48:29.601Z,4.40
2017-12-21T17:50:57.154Z,3.33
2017-12-21T17:53:25.440Z,4.15
2017-12-21T17:55:53.756Z,2.92
2017-12-21T17:58:21.284Z,3.40
2017-12-21T18:00:48.837Z,3.80
2017-12-21T18:03:16.379Z,5.60
2017-12-21T18:05:44.801Z,6.40
2017-12-21T18:08:12.332Z,4.80
2017-12-21T18:10:40.304Z,7.20
2017-12-21T18:13:07.883Z,4.57
2017-12-21T18:15:35.477Z,9.18
2017-12-21T18:18:02.992Z,3.33
2017-12-21T18:20:30.544Z,4.30
2017-12-21T18:22:58.084Z,8.82
2017-12-21T18:25:26.398Z,6.22
2017-12-21T18:27:53.933Z,6.68
2017-12-21T18:30:22.219Z,7.03
2017-12-21T18:32:49.762Z,4.70
2017-12-21T18:35:17.287Z,4.03
2017-12-21T18:37:44.842Z,7.37
2017-12-21T18:40:12.381Z,2.85
2017-12-21T18:42:40.680Z,4.07
2017-12-21T18:45:08.257Z,3.67
2017-12-21T18:47:35.793Z,5.40
2017-12-21T18:50:03.332Z,5.35
2017-12-21T18:52:31.630Z,4.07
2017-12-21T18:54:59.181Z,5.35
2017-12-21T18:57:27.469Z,6.00
2017-12-21T18:59:55.025Z,3.28
2017-12-21T19:02:22.572Z,3.58
2017-12-21T19:04:50.922Z,3.92
2017-12-21T19:07:18.461Z,16.15
2017-12-21T19:09:46.029Z,8.90
2017-12-21T19:12:13.558Z,4.97
2017-12-21T19:14:41.112Z,5.15
2017-12-21T19:17:08.669Z,4.30
2017-12-21T19:19:36.200Z,5.35
2017-12-21T19:22:04.520Z,3.85
2017-12-21T19:24:32.086Z,4.62
2017-12-21T19:26:59.612Z,5.45
2017-12-21T19:29:27.914Z,4.90
2017-12-21T19:31:55.460Z,4.82
2017-12-21T19:34:22.989Z,4.80
2017-12-21T19:36:50.525Z,5.50
2017-12-21T19:39:18.081Z,3.83
2017-12-21T19:41:45.619Z,3.72
2017-12-21T19:44:13.142Z,3.00
2017-12-21T19:46:41.451Z,3.92
2017-12-21T19:49:08.993Z,3.70
2017-12-21T19:51:36.551Z,4.00
2017-12-21T19:54:04.852Z,2.42
2017-12-21T19:56:32.408Z,2.92
2017-12-21T19:58:59.942Z,2.47
2017-12-21T20:01:28.285Z,2.67
2017-12-21T20:03:55.841Z,3.20
2017-12-21T20:06:23.384Z,3.47
2017-12-21T20:08:50.911Z,7.68
2017-12-21T20:11:18.456Z,4.53
2017-12-21T20:13:46.791Z,3.50
2017-12-21T20:16:14.349Z,2.92
2017-12-21T20:18:41.890Z,3.90
2017-12-21T20:21:09.549Z,5.40
2017-12-21T20:23:37.089Z,4.30
2017-12-21T20:26:04.627Z,5.28
2017-12-21T20:28:32.940Z,4.28
2017-12-21T20:31:00.484Z,4.28
2017-12-21T20:33:28.029Z,4.12
2017-12-21T20:35:56.333Z,5.95
2017-12-21T20:38:23.874Z,5.30
2017-12-21T20:40:51.421Z,5.22
2017-12-21T20:43:18.983Z,5.28
2017-12-21T20:45:46.529Z,9.80
2017-12-21T20:48:14.064Z,5.82
2017-12-21T20:50:42.410Z,6.55
2017-12-21T20:53:09.967Z,8.20
2017-12-21T20:55:37.526Z,11.02
2017-12-21T20:58:05.048Z,7.07
2017-12-21T21:00:32.580Z,9.15
2017-12-21T21:03:00.880Z,9.73
2017-12-21T21:05:28.432Z,11.57
2017-12-21T21:07:55.956Z,11.90
2017-12-21T21:10:23.512Z,13.55
2017-12-21T21:12:51.032Z,10.30
2017-12-21T21:15:18.581Z,9.40
2017-12-21T21:17:46.128Z,8.07
2017-12-21T21:20:13.666Z,8.50
2017-12-21T21:22:42.037Z,8.25
2017-12-21T21:25:09.588Z,8.77
2017-12-21T21:27:37.895Z,6.90
2017-12-21T21:30:05.540Z,8.68
2017-12-21T21:32:33.838Z,8.02
2017-12-21T21:35:01.398Z,8.40
2017-12-21T21:37:28.922Z,9.25
2017-12-21T21:39:56.478Z,12.80
2017-12-21T21:42:24.029Z,13.50
2017-12-21T21:44:52.435Z,10.18
2017-12-21T21:47:20.009Z,8.43
2017-12-21T21:49:47.534Z,7.95
2017-12-21T21:52:15.085Z,9.98
2017-12-21T21:54:42.616Z,7.18
2017-12-21T21:57:10.205Z,7.90
2017-12-21T21:59:37.756Z,10.73
2017-12-21T22:02:05.310Z,8.57
2017-12-21T22:04:32.874Z,8.45
2017-12-21T22:07:00.428Z,8.70
2017-12-21T22:09:27.974Z,8.13
2017-12-21T22:11:56.066Z,8.85
2017-12-21T22:14:23.637Z,8.50
2017-12-21T22:16:51.162Z,7.68
2017-12-21T22:19:18.805Z,7.85
2017-12-21T22:21:47.097Z,6.85
2017-12-21T22:24:15.405Z,6.93
2017-12-21T22:26:42.948Z,9.38
2017-12-21T22:29:10.497Z,9.32
2017-12-21T22:31:38.834Z,7.55
2017-12-21T22:34:06.377Z,7.40
2017-12-21T22:36:34.022Z,9.00
2017-12-21T22:39:01.562Z,5.95
2017-12-21T22:41:29.128Z,7.70
2017-12-21T22:43:56.679Z,6.62
2017-12-21T22:46:24.216Z,6.62
2017-12-21T22:48:52.513Z,8.80
2017-12-21T22:51:20.841Z,6.18
2017-12-21T22:53:48.402Z,8.90
2017-12-21T22:56:15.953Z,8.23
2017-12-21T22:58:43.488Z,5.60
2017-12-21T23:01:11.033Z,7.55
2017-12-21T23:03:38.580Z,7.37
2017-12-21T23:06:06.923Z,7.72
2017-12-21T23:08:34.466Z,5.95
2017-12-21T23:11:02.845Z,6.62
2017-12-21T23:13:30.393Z,7.07
2017-12-21T23:15:57.936Z,8.52
2017-12-21T23:18:25.460Z,7.45
2017-12-21T23:20:53.012Z,6.43
2017-12-21T23:23:20.546Z,5.93
2017-12-21T23:25:48.070Z,6.90
2017-12-21T23:28:15.604Z,7.70
2017-12-21T23:30:43.897Z,5.55
2017-12-21T23:33:12.209Z,8.57
2017-12-21T23:35:39.741Z,7.87
2017-12-21T23:38:07.323Z,4.40
2017-12-21T23:40:34.981Z,5.68
2017-12-21T23:43:02.541Z,7.15
2017-12-21T23:45:30.104Z,4.47
2017-12-21T23:47:57.713Z,4.00
2017-12-21T23:50:26.013Z,4.47
2017-12-21T23:52:54.308Z,4.57
2017-12-21T23:55:21.923Z,3.85
2017-12-21T23:57:49.440Z,4.62
